sensor_id;sensor_type;location;lat;lon;timestamp;P1;durP1;ratioP1;P2;durP2;ratioP2
11572;SDS011;5842;52.426;4.886;2022-11-20T07:38:38;43.60;;;23.45;;
11572;SDS011;5842;52.426;4.886;2022-11-20T07:41:06;50.70;;;26.97;;
11572;SDS011;5842;52.426;4.886;2022-11-20T07:43:33;49.57;;;27.97;;
11572;SDS011;5842;52.426;4.886;2022-11-20T07:46:00;43.75;;;25.63;;
11572;SDS011;5842;52.426;4.886;2022-11-20T07:48:28;44.08;;;26.55;;
11572;SDS011;5842;52.426;4.886;2022-11-20T07:50:56;45.25;;;27.42;;
11572;SDS011;5842;52.426;4.886;2022-11-20T07:53:24;40.97;;;26.83;;
11572;SDS011;5842;52.426;4.886;2022-11-20T08:37:59;34.23;;;16.90;;
11572;SDS011;5842;52.426;4.886;2022-11-20T08:40:26;38.90;;;19.70;;
11572;SDS011;5842;52.426;4.886;2022-11-20T08:42:53;35.40;;;20.70;;
11572;SDS011;5842;52.426;4.886;2022-11-20T08:45:22;39.03;;;22.80;;
11572;SDS011;5842;52.426;4.886;2022-11-20T08:47:49;38.78;;;26.45;;
11572;SDS011;5842;52.426;4.886;2022-11-20T08:50:16;36.17;;;22.63;;
11572;SDS011;5842;52.426;4.886;2022-11-20T08:52:44;36.27;;;21.70;;
11572;SDS011;5842;52.426;4.886;2022-11-20T08:55:11;34.17;;;20.90;;
11572;SDS011;5842;52.426;4.886;2022-11-20T08:57:38;35.43;;;20.80;;
11572;SDS011;5842;52.426;4.886;2022-11-20T09:00:06;32.43;;;19.23;;
11572;SDS011;5842;52.426;4.886;2022-11-20T09:02:36;30.17;;;17.70;;
11572;SDS011;5842;52.426;4.886;2022-11-20T09:05:03;28.23;;;17.17;;
11572;SDS011;5842;52.426;4.886;2022-11-20T09:07:31;32.20;;;19.47;;
11572;SDS011;5842;52.426;4.886;2022-11-20T09:09:58;32.63;;;19.33;;
11572;SDS011;5842;52.426;4.886;2022-11-20T09:12:26;31.00;;;19.33;;
11572;SDS011;5842;52.426;4.886;2022-11-20T09:14:53;34.53;;;20.40;;
11572;SDS011;5842;52.426;4.886;2022-11-20T09:17:20;31.60;;;19.53;;
11572;SDS011;5842;52.426;4.886;2022-11-20T09:19:48;31.27;;;18.97;;
11572;SDS011;5842;52.426;4.886;2022-11-20T09:22:15;28.10;;;17.83;;
11572;SDS011;5842;52.426;4.886;2022-11-20T09:24:42;27.20;;;17.27;;
11572;SDS011;5842;52.426;4.886;2022-11-20T09:27:09;26.67;;;16.93;;
11572;SDS011;5842;52.426;4.886;2022-11-20T09:29:37;24.93;;;15.70;;
11572;SDS011;5842;52.426;4.886;2022-11-20T09:32:04;22.17;;;14.57;;
11572;SDS011;5842;52.426;4.886;2022-11-20T09:34:31;22.90;;;15.17;;
11572;SDS011;5842;52.426;4.886;2022-11-20T09:37:00;22.77;;;14.80;;
11572;SDS011;5842;52.426;4.886;2022-11-20T09:39:27;20.40;;;13.37;;
11572;SDS011;5842;52.426;4.886;2022-11-20T09:44:55;21.00;;;13.50;;
11572;SDS011;5842;52.426;4.886;2022-11-20T09:47:45;21.13;;;13.33;;
11572;SDS011;5842;52.426;4.886;2022-11-20T09:50:22;22.10;;;13.00;;
11572;SDS011;5842;52.426;4.886;2022-11-20T09:53:11;21.57;;;13.53;;
11572;SDS011;5842;52.426;4.886;2022-11-20T09:55:42;22.40;;;14.00;;
11572;SDS011;5842;52.426;4.886;2022-11-20T09:58:13;20.87;;;14.27;;
11572;SDS011;5842;52.426;4.886;2022-11-20T10:00:54;21.40;;;13.20;;
11572;SDS011;5842;52.426;4.886;2022-11-20T10:03:30;18.87;;;13.67;;
11572;SDS011;5842;52.426;4.886;2022-11-20T10:06:07;19.27;;;13.57;;
11572;SDS011;5842;52.426;4.886;2022-11-20T10:08:41;20.00;;;13.83;;
11572;SDS011;5842;52.426;4.886;2022-11-20T10:11:15;21.53;;;14.37;;
11572;SDS011;5842;52.426;4.886;2022-11-20T10:13:50;21.93;;;13.77;;
11572;SDS011;5842;52.426;4.886;2022-11-20T10:16:27;22.13;;;14.10;;
11572;SDS011;5842;52.426;4.886;2022-11-20T10:19:07;22.27;;;13.90;;
11572;SDS011;5842;52.426;4.886;2022-11-20T10:21:54;21.67;;;14.60;;
11572;SDS011;5842;52.426;4.886;2022-11-20T10:27:37;23.57;;;15.00;;
11572;SDS011;5842;52.426;4.886;2022-11-20T10:30:16;22.87;;;15.70;;
11572;SDS011;5842;52.426;4.886;2022-11-20T10:32:47;23.87;;;15.33;;
11572;SDS011;5842;52.426;4.886;2022-11-20T10:35:20;22.53;;;15.27;;
11572;SDS011;5842;52.426;4.886;2022-11-20T10:37:51;24.03;;;15.13;;
11572;SDS011;5842;52.426;4.886;2022-11-20T10:40:25;25.57;;;16.17;;
11572;SDS011;5842;52.426;4.886;2022-11-20T10:42:59;24.30;;;15.73;;
11572;SDS011;5842;52.426;4.886;2022-11-20T10:45:35;24.57;;;15.30;;
11572;SDS011;5842;52.426;4.886;2022-11-20T10:48:14;22.53;;;15.43;;
11572;SDS011;5842;52.426;4.886;2022-11-20T10:50:57;23.43;;;15.10;;
11572;SDS011;5842;52.426;4.886;2022-11-20T10:53:40;22.87;;;14.83;;
11572;SDS011;5842;52.426;4.886;2022-11-20T10:56:35;23.03;;;14.63;;
11572;SDS011;5842;52.426;4.886;2022-11-20T11:02:16;24.27;;;15.20;;
11572;SDS011;5842;52.426;4.886;2022-11-20T11:04:45;23.13;;;14.43;;
11572;SDS011;5842;52.426;4.886;2022-11-20T11:07:15;24.80;;;16.23;;
11572;SDS011;5842;52.426;4.886;2022-11-20T11:09:46;23.93;;;15.23;;
11572;SDS011;5842;52.426;4.886;2022-11-20T11:12:17;23.70;;;15.33;;
11572;SDS011;5842;52.426;4.886;2022-11-20T11:14:46;25.33;;;16.23;;
11572;SDS011;5842;52.426;4.886;2022-11-20T11:17:20;23.67;;;15.13;;
11572;SDS011;5842;52.426;4.886;2022-11-20T11:19:58;23.57;;;14.97;;
11572;SDS011;5842;52.426;4.886;2022-11-20T11:22:31;22.10;;;14.73;;
11572;SDS011;5842;52.426;4.886;2022-11-20T11:25:00;23.93;;;15.57;;
11572;SDS011;5842;52.426;4.886;2022-11-20T11:27:29;24.80;;;15.53;;
11572;SDS011;5842;52.426;4.886;2022-11-20T11:30:11;22.70;;;15.40;;
11572;SDS011;5842;52.426;4.886;2022-11-20T11:32:41;24.20;;;16.63;;
11572;SDS011;5842;52.426;4.886;2022-11-20T11:35:18;23.13;;;16.10;;
11572;SDS011;5842;52.426;4.886;2022-11-20T11:37:48;25.30;;;16.27;;
11572;SDS011;5842;52.426;4.886;2022-11-20T11:40:16;27.83;;;16.80;;
11572;SDS011;5842;52.426;4.886;2022-11-20T11:42:49;26.13;;;17.00;;
11572;SDS011;5842;52.426;4.886;2022-11-20T11:45:20;25.80;;;16.90;;
11572;SDS011;5842;52.426;4.886;2022-11-20T11:47:47;28.13;;;17.37;;
11572;SDS011;5842;52.426;4.886;2022-11-20T11:50:18;28.80;;;17.37;;
11572;SDS011;5842;52.426;4.886;2022-11-20T11:52:49;30.37;;;17.87;;
11572;SDS011;5842;52.426;4.886;2022-11-20T11:55:26;31.10;;;18.13;;
11572;SDS011;5842;52.426;4.886;2022-11-20T11:58:02;29.00;;;18.27;;
11572;SDS011;5842;52.426;4.886;2022-11-20T12:00:47;29.20;;;17.77;;
11572;SDS011;5842;52.426;4.886;2022-11-20T12:03:21;30.47;;;18.53;;
11572;SDS011;5842;52.426;4.886;2022-11-20T12:05:55;33.00;;;19.60;;
11572;SDS011;5842;52.426;4.886;2022-11-20T12:08:27;35.73;;;21.17;;
11572;SDS011;5842;52.426;4.886;2022-11-20T12:11:02;36.77;;;20.67;;
11572;SDS011;5842;52.426;4.886;2022-11-20T12:13:42;37.03;;;21.83;;
11572;SDS011;5842;52.426;4.886;2022-11-20T12:16:14;39.83;;;21.67;;
11572;SDS011;5842;52.426;4.886;2022-11-20T12:18:45;43.37;;;23.43;;
11572;SDS011;5842;52.426;4.886;2022-11-20T12:21:26;43.90;;;23.30;;
11572;SDS011;5842;52.426;4.886;2022-11-20T12:24:21;43.10;;;23.20;;
11572;SDS011;5842;52.426;4.886;2022-11-20T12:27:27;42.87;;;23.30;;
11572;SDS011;5842;52.426;4.886;2022-11-20T12:30:08;43.70;;;23.37;;
11572;SDS011;5842;52.426;4.886;2022-11-20T12:35:44;44.50;;;24.13;;
11572;SDS011;5842;52.426;4.886;2022-11-20T12:38:29;46.60;;;24.93;;
11572;SDS011;5842;52.426;4.886;2022-11-20T12:41:10;42.83;;;23.50;;
11572;SDS011;5842;52.426;4.886;2022-11-20T12:44:06;45.43;;;23.77;;
11572;SDS011;5842;52.426;4.886;2022-11-20T12:47:07;47.27;;;24.20;;
11572;SDS011;5842;52.426;4.886;2022-11-20T12:49:44;44.87;;;23.17;;
11572;SDS011;5842;52.426;4.886;2022-11-20T12:52:23;45.00;;;24.83;;
11572;SDS011;5842;52.426;4.886;2022-11-20T12:55:12;44.07;;;23.83;;
11572;SDS011;5842;52.426;4.886;2022-11-20T12:57:50;41.90;;;22.77;;
11572;SDS011;5842;52.426;4.886;2022-11-20T13:00:23;44.53;;;24.07;;
11572;SDS011;5842;52.426;4.886;2022-11-20T13:05:51;41.10;;;22.77;;
11572;SDS011;5842;52.426;4.886;2022-11-20T13:08:25;42.20;;;22.70;;
11572;SDS011;5842;52.426;4.886;2022-11-20T13:10:57;42.13;;;22.07;;
11572;SDS011;5842;52.426;4.886;2022-11-20T13:13:31;46.10;;;23.43;;
11572;SDS011;5842;52.426;4.886;2022-11-20T13:16:07;40.10;;;22.57;;
11572;SDS011;5842;52.426;4.886;2022-11-20T13:18:40;47.00;;;23.07;;
11572;SDS011;5842;52.426;4.886;2022-11-20T13:21:13;47.03;;;24.27;;
11572;SDS011;5842;52.426;4.886;2022-11-20T13:23:41;47.20;;;24.33;;
11572;SDS011;5842;52.426;4.886;2022-11-20T13:26:14;46.83;;;23.27;;
11572;SDS011;5842;52.426;4.886;2022-11-20T13:28:44;45.13;;;24.70;;
11572;SDS011;5842;52.426;4.886;2022-11-20T13:31:23;42.60;;;23.33;;
11572;SDS011;5842;52.426;4.886;2022-11-20T13:33:58;46.87;;;24.03;;
11572;SDS011;5842;52.426;4.886;2022-11-20T13:36:26;47.03;;;25.07;;
11572;SDS011;5842;52.426;4.886;2022-11-20T13:38:55;45.73;;;24.70;;
11572;SDS011;5842;52.426;4.886;2022-11-20T13:41:24;45.83;;;25.07;;
11572;SDS011;5842;52.426;4.886;2022-11-20T13:43:58;46.47;;;24.00;;
11572;SDS011;5842;52.426;4.886;2022-11-20T13:46:40;43.67;;;24.67;;
11572;SDS011;5842;52.426;4.886;2022-11-20T13:49:16;48.90;;;26.10;;
11572;SDS011;5842;52.426;4.886;2022-11-20T13:51:45;43.37;;;24.27;;
11572;SDS011;5842;52.426;4.886;2022-11-20T13:54:28;49.97;;;26.50;;
11572;SDS011;5842;52.426;4.886;2022-11-20T13:57:25;44.03;;;25.10;;
11572;SDS011;5842;52.426;4.886;2022-11-20T14:00:04;48.70;;;25.03;;
11572;SDS011;5842;52.426;4.886;2022-11-20T14:02:38;43.60;;;23.57;;
11572;SDS011;5842;52.426;4.886;2022-11-20T14:05:11;47.77;;;24.73;;
11572;SDS011;5842;52.426;4.886;2022-11-20T14:07:46;44.50;;;24.70;;
11572;SDS011;5842;52.426;4.886;2022-11-20T14:10:25;49.20;;;25.10;;
11572;SDS011;5842;52.426;4.886;2022-11-20T14:12:54;43.93;;;23.10;;
11572;SDS011;5842;52.426;4.886;2022-11-20T14:15:26;48.87;;;25.83;;
11572;SDS011;5842;52.426;4.886;2022-11-20T14:17:55;42.30;;;23.00;;
11572;SDS011;5842;52.426;4.886;2022-11-20T14:20:25;46.03;;;25.60;;
11572;SDS011;5842;52.426;4.886;2022-11-20T14:22:56;43.97;;;24.63;;
11572;SDS011;5842;52.426;4.886;2022-11-20T14:25:24;48.83;;;25.70;;
11572;SDS011;5842;52.426;4.886;2022-11-20T14:27:53;48.37;;;26.33;;
11572;SDS011;5842;52.426;4.886;2022-11-20T14:30:23;50.37;;;26.83;;
11572;SDS011;5842;52.426;4.886;2022-11-20T14:32:52;47.93;;;26.33;;
11572;SDS011;5842;52.426;4.886;2022-11-20T14:35:23;45.53;;;26.27;;
11572;SDS011;5842;52.426;4.886;2022-11-20T14:37:52;42.80;;;25.33;;
11572;SDS011;5842;52.426;4.886;2022-11-20T14:40:22;47.20;;;26.13;;
11572;SDS011;5842;52.426;4.886;2022-11-20T14:42:54;44.93;;;25.87;;
11572;SDS011;5842;52.426;4.886;2022-11-20T14:45:21;50.87;;;26.80;;
11572;SDS011;5842;52.426;4.886;2022-11-20T14:47:50;47.40;;;25.97;;
11572;SDS011;5842;52.426;4.886;2022-11-20T14:50:19;45.93;;;26.00;;
11572;SDS011;5842;52.426;4.886;2022-11-20T14:52:54;48.53;;;25.87;;
11572;SDS011;5842;52.426;4.886;2022-11-20T14:55:26;52.50;;;28.50;;
11572;SDS011;5842;52.426;4.886;2022-11-20T14:57:55;52.97;;;26.63;;
11572;SDS011;5842;52.426;4.886;2022-11-20T15:00:23;50.20;;;26.83;;
11572;SDS011;5842;52.426;4.886;2022-11-20T15:02:52;49.93;;;26.77;;
11572;SDS011;5842;52.426;4.886;2022-11-20T15:05:24;47.50;;;26.20;;
11572;SDS011;5842;52.426;4.886;2022-11-20T15:08:04;48.97;;;26.80;;
11572;SDS011;5842;52.426;4.886;2022-11-20T15:10:36;48.03;;;26.37;;
11572;SDS011;5842;52.426;4.886;2022-11-20T15:13:05;49.97;;;27.00;;
11572;SDS011;5842;52.426;4.886;2022-11-20T15:15:39;45.97;;;24.80;;
11572;SDS011;5842;52.426;4.886;2022-11-20T15:18:12;47.00;;;26.43;;
11572;SDS011;5842;52.426;4.886;2022-11-20T15:20:40;47.93;;;26.60;;
11572;SDS011;5842;52.426;4.886;2022-11-20T15:23:11;49.73;;;27.20;;
11572;SDS011;5842;52.426;4.886;2022-11-20T15:25:39;48.77;;;27.13;;
11572;SDS011;5842;52.426;4.886;2022-11-20T15:28:12;50.37;;;27.47;;
11572;SDS011;5842;52.426;4.886;2022-11-20T15:30:43;48.77;;;27.73;;
11572;SDS011;5842;52.426;4.886;2022-11-20T15:33:14;56.33;;;27.77;;
11572;SDS011;5842;52.426;4.886;2022-11-20T15:35:41;55.63;;;28.63;;
11572;SDS011;5842;52.426;4.886;2022-11-20T15:38:10;55.13;;;28.57;;
11572;SDS011;5842;52.426;4.886;2022-11-20T15:40:38;47.90;;;27.27;;
11572;SDS011;5842;52.426;4.886;2022-11-20T15:43:05;51.87;;;27.57;;
11572;SDS011;5842;52.426;4.886;2022-11-20T15:45:34;56.70;;;28.37;;
11572;SDS011;5842;52.426;4.886;2022-11-20T15:48:05;52.07;;;27.90;;
11572;SDS011;5842;52.426;4.886;2022-11-20T15:50:37;56.27;;;28.50;;
11572;SDS011;5842;52.426;4.886;2022-11-20T15:53:10;51.80;;;27.43;;
11572;SDS011;5842;52.426;4.886;2022-11-20T15:55:37;52.87;;;28.27;;
11572;SDS011;5842;52.426;4.886;2022-11-20T15:58:05;54.30;;;28.20;;
11572;SDS011;5842;52.426;4.886;2022-11-20T16:00:32;54.20;;;28.20;;
11572;SDS011;5842;52.426;4.886;2022-11-20T16:02:59;50.20;;;27.20;;
11572;SDS011;5842;52.426;4.886;2022-11-20T16:05:27;52.77;;;27.30;;
11572;SDS011;5842;52.426;4.886;2022-11-20T16:07:54;54.77;;;28.90;;
11572;SDS011;5842;52.426;4.886;2022-11-20T16:10:23;52.30;;;27.60;;
11572;SDS011;5842;52.426;4.886;2022-11-20T16:12:50;55.20;;;29.23;;
11572;SDS011;5842;52.426;4.886;2022-11-20T16:15:34;52.90;;;27.90;;
11572;SDS011;5842;52.426;4.886;2022-11-20T16:18:15;50.43;;;26.93;;
11572;SDS011;5842;52.426;4.886;2022-11-20T16:20:44;52.73;;;28.10;;
11572;SDS011;5842;52.426;4.886;2022-11-20T16:23:13;50.43;;;27.47;;
11572;SDS011;5842;52.426;4.886;2022-11-20T16:25:42;48.10;;;26.07;;
11572;SDS011;5842;52.426;4.886;2022-11-20T16:28:09;48.73;;;27.30;;
11572;SDS011;5842;52.426;4.886;2022-11-20T16:30:37;46.20;;;26.80;;
11572;SDS011;5842;52.426;4.886;2022-11-20T16:33:08;52.57;;;27.70;;
11572;SDS011;5842;52.426;4.886;2022-11-20T16:35:36;49.17;;;26.57;;
11572;SDS011;5842;52.426;4.886;2022-11-20T16:38:03;51.87;;;27.80;;
11572;SDS011;5842;52.426;4.886;2022-11-20T16:40:31;47.30;;;26.17;;
11572;SDS011;5842;52.426;4.886;2022-11-20T16:43:00;44.20;;;24.57;;
11572;SDS011;5842;52.426;4.886;2022-11-20T16:45:36;47.17;;;25.37;;
11572;SDS011;5842;52.426;4.886;2022-11-20T16:48:06;46.90;;;24.87;;
11572;SDS011;5842;52.426;4.886;2022-11-20T16:50:42;47.67;;;26.00;;
11572;SDS011;5842;52.426;4.886;2022-11-20T16:53:12;48.57;;;25.50;;
11572;SDS011;5842;52.426;4.886;2022-11-20T16:55:39;46.63;;;25.30;;
11572;SDS011;5842;52.426;4.886;2022-11-20T16:58:10;43.87;;;25.17;;
11572;SDS011;5842;52.426;4.886;2022-11-20T17:00:37;46.13;;;25.20;;
11572;SDS011;5842;52.426;4.886;2022-11-20T17:03:05;45.17;;;25.27;;
11572;SDS011;5842;52.426;4.886;2022-11-20T17:05:32;45.90;;;25.40;;
11572;SDS011;5842;52.426;4.886;2022-11-20T17:08:00;43.77;;;24.77;;
11572;SDS011;5842;52.426;4.886;2022-11-20T17:10:27;45.37;;;25.17;;
11572;SDS011;5842;52.426;4.886;2022-11-20T17:12:55;48.87;;;25.37;;
11572;SDS011;5842;52.426;4.886;2022-11-20T17:15:23;46.67;;;24.90;;
11572;SDS011;5842;52.426;4.886;2022-11-20T17:17:50;42.07;;;24.43;;
11572;SDS011;5842;52.426;4.886;2022-11-20T17:20:17;40.20;;;23.73;;
11572;SDS011;5842;52.426;4.886;2022-11-20T17:22:45;44.40;;;25.43;;
11572;SDS011;5842;52.426;4.886;2022-11-20T17:25:12;44.53;;;25.03;;
11572;SDS011;5842;52.426;4.886;2022-11-20T17:27:39;44.83;;;24.93;;
11572;SDS011;5842;52.426;4.886;2022-11-20T17:30:07;44.37;;;24.77;;
11572;SDS011;5842;52.426;4.886;2022-11-20T17:32:35;43.93;;;23.93;;
11572;SDS011;5842;52.426;4.886;2022-11-20T17:35:04;43.53;;;24.63;;
11572;SDS011;5842;52.426;4.886;2022-11-20T17:37:31;44.10;;;24.43;;
11572;SDS011;5842;52.426;4.886;2022-11-20T17:39:58;42.13;;;25.33;;
11572;SDS011;5842;52.426;4.886;2022-11-20T17:42:25;49.10;;;25.20;;
11572;SDS011;5842;52.426;4.886;2022-11-20T17:44:53;44.87;;;25.57;;
11572;SDS011;5842;52.426;4.886;2022-11-20T17:47:23;45.63;;;24.87;;
11572;SDS011;5842;52.426;4.886;2022-11-20T17:49:52;46.57;;;24.03;;
11572;SDS011;5842;52.426;4.886;2022-11-20T17:52:19;53.43;;;26.77;;
11572;SDS011;5842;52.426;4.886;2022-11-20T17:54:47;48.03;;;24.60;;
11572;SDS011;5842;52.426;4.886;2022-11-20T17:57:16;51.97;;;26.50;;
11572;SDS011;5842;52.426;4.886;2022-11-20T18:00:00;52.23;;;27.23;;
11572;SDS011;5842;52.426;4.886;2022-11-20T18:02:27;50.20;;;26.80;;
11572;SDS011;5842;52.426;4.886;2022-11-20T18:04:56;53.63;;;27.10;;
11572;SDS011;5842;52.426;4.886;2022-11-20T18:07:23;48.10;;;26.40;;
11572;SDS011;5842;52.426;4.886;2022-11-20T18:09:50;56.67;;;27.97;;
11572;SDS011;5842;52.426;4.886;2022-11-20T18:12:17;53.33;;;27.20;;
11572;SDS011;5842;52.426;4.886;2022-11-20T18:14:45;53.50;;;26.87;;
11572;SDS011;5842;52.426;4.886;2022-11-20T18:17:14;53.70;;;26.13;;
11572;SDS011;5842;52.426;4.886;2022-11-20T18:19:43;54.10;;;26.70;;
11572;SDS011;5842;52.426;4.886;2022-11-20T18:22:13;60.73;;;28.53;;
11572;SDS011;5842;52.426;4.886;2022-11-20T18:24:41;49.03;;;26.73;;
11572;SDS011;5842;52.426;4.886;2022-11-20T18:27:12;50.83;;;27.13;;
11572;SDS011;5842;52.426;4.886;2022-11-20T18:29:44;50.87;;;27.03;;
11572;SDS011;5842;52.426;4.886;2022-11-20T18:32:12;52.30;;;26.80;;
11572;SDS011;5842;52.426;4.886;2022-11-20T18:34:40;51.53;;;26.67;;
11572;SDS011;5842;52.426;4.886;2022-11-20T18:37:07;52.17;;;26.03;;
11572;SDS011;5842;52.426;4.886;2022-11-20T18:39:36;51.27;;;27.57;;
11572;SDS011;5842;52.426;4.886;2022-11-20T18:42:03;50.57;;;27.23;;
11572;SDS011;5842;52.426;4.886;2022-11-20T18:44:47;51.70;;;28.23;;
11572;SDS011;5842;52.426;4.886;2022-11-20T18:47:21;48.23;;;27.20;;
11572;SDS011;5842;52.426;4.886;2022-11-20T18:49:49;49.23;;;27.53;;
11572;SDS011;5842;52.426;4.886;2022-11-20T18:52:18;51.00;;;28.27;;
11572;SDS011;5842;52.426;4.886;2022-11-20T18:54:48;50.87;;;29.30;;
11572;SDS011;5842;52.426;4.886;2022-11-20T18:57:16;55.97;;;30.47;;
11572;SDS011;5842;52.426;4.886;2022-11-20T18:59:44;61.43;;;34.27;;
11572;SDS011;5842;52.426;4.886;2022-11-20T19:02:11;51.07;;;28.90;;
11572;SDS011;5842;52.426;4.886;2022-11-20T19:04:39;49.43;;;27.27;;
11572;SDS011;5842;52.426;4.886;2022-11-20T19:07:06;48.33;;;26.53;;
11572;SDS011;5842;52.426;4.886;2022-11-20T19:09:36;48.23;;;27.33;;
11572;SDS011;5842;52.426;4.886;2022-11-20T19:12:05;48.13;;;27.53;;
11572;SDS011;5842;52.426;4.886;2022-11-20T19:14:34;55.13;;;29.80;;
11572;SDS011;5842;52.426;4.886;2022-11-20T19:17:01;48.30;;;26.93;;
11572;SDS011;5842;52.426;4.886;2022-11-20T19:19:30;56.53;;;34.03;;
11572;SDS011;5842;52.426;4.886;2022-11-20T19:21:57;63.80;;;34.03;;
11572;SDS011;5842;52.426;4.886;2022-11-20T19:24:24;62.33;;;34.33;;
11572;SDS011;5842;52.426;4.886;2022-11-20T19:26:52;62.73;;;35.10;;
11572;SDS011;5842;52.426;4.886;2022-11-20T19:29:22;65.20;;;37.43;;
11572;SDS011;5842;52.426;4.886;2022-11-20T19:31:50;65.37;;;35.37;;
11572;SDS011;5842;52.426;4.886;2022-11-20T19:34:18;59.30;;;32.77;;
11572;SDS011;5842;52.426;4.886;2022-11-20T19:36:45;58.80;;;29.37;;
11572;SDS011;5842;52.426;4.886;2022-11-20T19:39:12;88.23;;;50.93;;
11572;SDS011;5842;52.426;4.886;2022-11-20T19:41:39;72.90;;;42.43;;
11572;SDS011;5842;52.426;4.886;2022-11-20T19:44:07;57.40;;;32.50;;
11572;SDS011;5842;52.426;4.886;2022-11-20T19:46:38;58.27;;;31.67;;
11572;SDS011;5842;52.426;4.886;2022-11-20T19:49:06;60.47;;;34.13;;
11572;SDS011;5842;52.426;4.886;2022-11-20T19:51:36;58.17;;;31.90;;
11572;SDS011;5842;52.426;4.886;2022-11-20T19:54:04;54.80;;;29.23;;
11572;SDS011;5842;52.426;4.886;2022-11-20T19:56:32;53.50;;;29.87;;
11572;SDS011;5842;52.426;4.886;2022-11-20T19:58:59;51.73;;;28.67;;
11572;SDS011;5842;52.426;4.886;2022-11-20T20:01:27;54.57;;;29.33;;
11572;SDS011;5842;52.426;4.886;2022-11-20T20:03:57;53.23;;;29.50;;
11572;SDS011;5842;52.426;4.886;2022-11-20T20:06:27;50.77;;;29.83;;
11572;SDS011;5842;52.426;4.886;2022-11-20T20:08:55;59.37;;;30.40;;
11572;SDS011;5842;52.426;4.886;2022-11-20T20:11:24;56.33;;;30.73;;
11572;SDS011;5842;52.426;4.886;2022-11-20T20:13:52;55.67;;;30.60;;
11572;SDS011;5842;52.426;4.886;2022-11-20T20:16:21;53.07;;;29.33;;
11572;SDS011;5842;52.426;4.886;2022-11-20T20:18:52;61.57;;;31.63;;
11572;SDS011;5842;52.426;4.886;2022-11-20T20:21:22;59.10;;;31.87;;
11572;SDS011;5842;52.426;4.886;2022-11-20T20:23:50;57.03;;;30.80;;
11572;SDS011;5842;52.426;4.886;2022-11-20T20:26:18;54.43;;;30.97;;
11572;SDS011;5842;52.426;4.886;2022-11-20T20:28:46;59.53;;;30.77;;
11572;SDS011;5842;52.426;4.886;2022-11-20T20:31:14;58.03;;;29.43;;
11572;SDS011;5842;52.426;4.886;2022-11-20T20:33:42;57.50;;;31.10;;
11572;SDS011;5842;52.426;4.886;2022-11-20T20:36:10;55.57;;;29.53;;
11572;SDS011;5842;52.426;4.886;2022-11-20T20:38:40;53.57;;;27.73;;
11572;SDS011;5842;52.426;4.886;2022-11-20T20:41:08;52.90;;;27.73;;
11572;SDS011;5842;52.426;4.886;2022-11-20T20:43:35;55.43;;;29.23;;
11572;SDS011;5842;52.426;4.886;2022-11-20T20:46:16;54.20;;;28.03;;
11572;SDS011;5842;52.426;4.886;2022-11-20T20:48:43;55.97;;;29.87;;
11572;SDS011;5842;52.426;4.886;2022-11-20T20:51:11;57.00;;;29.47;;
11572;SDS011;5842;52.426;4.886;2022-11-20T20:53:42;60.20;;;30.73;;
11572;SDS011;5842;52.426;4.886;2022-11-20T20:56:09;59.67;;;30.10;;
11572;SDS011;5842;52.426;4.886;2022-11-20T20:58:36;60.37;;;30.10;;
11572;SDS011;5842;52.426;4.886;2022-11-20T21:01:04;59.23;;;29.53;;
11572;SDS011;5842;52.426;4.886;2022-11-20T21:03:32;55.73;;;29.20;;
11572;SDS011;5842;52.426;4.886;2022-11-20T21:06:00;65.10;;;31.07;;
11572;SDS011;5842;52.426;4.886;2022-11-20T21:08:27;62.23;;;32.77;;
11572;SDS011;5842;52.426;4.886;2022-11-20T21:11:00;61.37;;;31.77;;
11572;SDS011;5842;52.426;4.886;2022-11-20T21:13:28;58.83;;;30.40;;
11572;SDS011;5842;52.426;4.886;2022-11-20T21:15:56;58.10;;;30.80;;
11572;SDS011;5842;52.426;4.886;2022-11-20T21:18:23;62.37;;;30.63;;
11572;SDS011;5842;52.426;4.886;2022-11-20T21:20:51;61.03;;;30.90;;
11572;SDS011;5842;52.426;4.886;2022-11-20T21:23:36;63.83;;;31.70;;
11572;SDS011;5842;52.426;4.886;2022-11-20T21:26:05;60.43;;;30.13;;
11572;SDS011;5842;52.426;4.886;2022-11-20T21:28:34;58.40;;;31.03;;
11572;SDS011;5842;52.426;4.886;2022-11-20T21:31:05;59.60;;;29.83;;
11572;SDS011;5842;52.426;4.886;2022-11-20T21:33:36;64.50;;;32.53;;
11572;SDS011;5842;52.426;4.886;2022-11-20T21:36:05;65.90;;;32.70;;
11572;SDS011;5842;52.426;4.886;2022-11-20T21:38:32;63.97;;;32.50;;
11572;SDS011;5842;52.426;4.886;2022-11-20T21:40:59;60.83;;;32.33;;
11572;SDS011;5842;52.426;4.886;2022-11-20T21:43:28;60.57;;;31.53;;
11572;SDS011;5842;52.426;4.886;2022-11-20T21:45:59;62.27;;;31.73;;
11572;SDS011;5842;52.426;4.886;2022-11-20T21:48:27;60.20;;;29.97;;
11572;SDS011;5842;52.426;4.886;2022-11-20T21:50:59;57.47;;;30.10;;
11572;SDS011;5842;52.426;4.886;2022-11-20T21:53:27;57.53;;;30.73;;
11572;SDS011;5842;52.426;4.886;2022-11-20T21:55:55;64.33;;;32.40;;
11572;SDS011;5842;52.426;4.886;2022-11-20T21:58:23;60.17;;;30.77;;
11572;SDS011;5842;52.426;4.886;2022-11-20T22:00:52;63.00;;;32.23;;
11572;SDS011;5842;52.426;4.886;2022-11-20T22:03:19;61.27;;;31.63;;
11572;SDS011;5842;52.426;4.886;2022-11-20T22:05:53;58.97;;;30.60;;
11572;SDS011;5842;52.426;4.886;2022-11-20T22:08:21;56.27;;;28.20;;
11572;SDS011;5842;52.426;4.886;2022-11-20T22:10:52;61.40;;;31.27;;
11572;SDS011;5842;52.426;4.886;2022-11-20T22:13:20;62.43;;;31.37;;
11572;SDS011;5842;52.426;4.886;2022-11-20T22:16:07;61.80;;;30.53;;
11572;SDS011;5842;52.426;4.886;2022-11-20T22:18:34;60.13;;;30.23;;
11572;SDS011;5842;52.426;4.886;2022-11-20T22:21:02;60.50;;;30.57;;
11572;SDS011;5842;52.426;4.886;2022-11-20T22:23:31;62.60;;;30.77;;
11572;SDS011;5842;52.426;4.886;2022-11-20T22:26:00;59.77;;;30.07;;
11572;SDS011;5842;52.426;4.886;2022-11-20T22:28:28;60.37;;;31.63;;
11572;SDS011;5842;52.426;4.886;2022-11-20T22:30:56;61.20;;;30.00;;
11572;SDS011;5842;52.426;4.886;2022-11-20T22:33:26;60.73;;;29.80;;
11572;SDS011;5842;52.426;4.886;2022-11-20T22:35:58;58.73;;;29.73;;
11572;SDS011;5842;52.426;4.886;2022-11-20T22:38:26;58.43;;;29.23;;
11572;SDS011;5842;52.426;4.886;2022-11-20T22:40:53;60.60;;;29.87;;
11572;SDS011;5842;52.426;4.886;2022-11-20T22:43:26;57.17;;;29.80;;
11572;SDS011;5842;52.426;4.886;2022-11-20T22:46:00;54.13;;;27.93;;
11572;SDS011;5842;52.426;4.886;2022-11-20T22:48:31;55.00;;;27.17;;
11572;SDS011;5842;52.426;4.886;2022-11-20T22:51:02;54.73;;;27.40;;
11572;SDS011;5842;52.426;4.886;2022-11-20T22:53:31;54.43;;;27.77;;
11572;SDS011;5842;52.426;4.886;2022-11-20T22:55:58;54.13;;;26.40;;
11572;SDS011;5842;52.426;4.886;2022-11-20T22:58:26;54.47;;;28.17;;
11572;SDS011;5842;52.426;4.886;2022-11-20T23:00:54;54.10;;;27.07;;
11572;SDS011;5842;52.426;4.886;2022-11-20T23:03:21;55.80;;;27.00;;
11572;SDS011;5842;52.426;4.886;2022-11-20T23:05:50;54.33;;;26.60;;
11572;SDS011;5842;52.426;4.886;2022-11-20T23:08:17;51.63;;;25.60;;
11572;SDS011;5842;52.426;4.886;2022-11-20T23:10:44;50.20;;;25.33;;
11572;SDS011;5842;52.426;4.886;2022-11-20T23:13:14;54.70;;;26.57;;
11572;SDS011;5842;52.426;4.886;2022-11-20T23:15:41;55.77;;;26.37;;
11572;SDS011;5842;52.426;4.886;2022-11-20T23:18:08;57.07;;;26.73;;
11572;SDS011;5842;52.426;4.886;2022-11-20T23:20:35;53.97;;;26.10;;
11572;SDS011;5842;52.426;4.886;2022-11-20T23:23:04;52.87;;;25.93;;
11572;SDS011;5842;52.426;4.886;2022-11-20T23:25:31;53.87;;;27.10;;
11572;SDS011;5842;52.426;4.886;2022-11-20T23:27:58;57.60;;;27.00;;
11572;SDS011;5842;52.426;4.886;2022-11-20T23:30:25;56.47;;;27.40;;